Time;durP1;ratioP1;P1;durP2;ratioP2;P2;SDS_P1;SDS_P2;PMS_P1;PMS_P2;Temp;Humidity;BMP_temperature;BMP_pressure;BME280_temperature;BME280_humidity;BME280_pressure;Samples;Min_cycle;Max_cycle;Signal;HPM_P1;HPM_P2
2021/09/23 00:00:22;;;;;;;18.00;11.18;;;;;;;9.78;100.00;97740.88;5009571;28;20023;-75
2021/09/23 00:03:08;;;;;;;18.20;10.48;;;;;;;9.76;100.00;97738.28;4993381;28;20458;-75
2021/09/23 00:05:34;;;;;;;19.75;11.93;;;;;;;9.52;100.00;97712.94;4993699;28;20030;-75
2021/09/23 00:08:00;;;;;;;21.08;11.85;;;;;;;9.68;100.00;97732.53;5009604;28;20108;-74
2021/09/23 00:10:28;;;;;;;19.30;12.10;;;;;;;9.69;100.00;97720.03;5009578;28;20026;-75
2021/09/23 00:12:54;;;;;;;17.45;11.52;;;;;;;9.80;100.00;97739.84;5009475;28;20490;-75
2021/09/23 00:15:20;;;;;;;19.05;11.93;;;;;;;9.86;100.00;97732.44;4993059;28;20065;-75
2021/09/23 00:17:49;;;;;;;18.42;11.07;;;;;;;9.82;100.00;97726.38;5009552;28;20023;-75
2021/09/23 00:20:23;;;;;;;16.08;10.70;;;;;;;9.70;100.00;97713.72;4993261;28;20030;-75
2021/09/23 00:22:49;;;;;;;18.27;11.80;;;;;;;9.84;100.00;97734.34;5009593;28;20037;-75
2021/09/23 00:25:14;;;;;;;17.25;10.50;;;;;;;9.79;100.00;97713.19;4992903;28;20038;-76
2021/09/23 00:27:40;;;;;;;18.25;11.13;;;;;;;9.90;100.00;97724.16;5007961;28;20498;-75
2021/09/23 00:30:10;;;;;;;15.75;10.55;;;;;;;9.94;100.00;97730.16;4992897;28;20117;-76
2021/09/23 00:32:36;;;;;;;17.33;11.38;;;;;;;9.96;100.00;97725.63;5002984;28;20457;-76
2021/09/23 00:35:03;;;;;;;16.67;10.95;;;;;;;10.00;100.00;97722.69;4989510;28;20197;-76
2021/09/23 00:37:28;;;;;;;16.55;10.68;;;;;;;9.88;100.00;97710.00;4989390;28;20113;-76
2021/09/23 00:39:54;;;;;;;16.50;10.73;;;;;;;9.88;100.00;97704.66;4989567;28;20462;-76
2021/09/23 00:42:19;;;;;;;16.27;10.52;;;;;;;9.81;100.00;97689.97;4989323;28;20128;-76
2021/09/23 00:45:00;;;;;;;16.83;10.88;;;;;;;9.98;100.00;97732.59;4989452;28;20165;-77
2021/09/23 00:47:26;;;;;;;17.63;11.35;;;;;;;9.77;100.00;97705.28;4973070;28;20402;-76
2021/09/23 00:49:52;;;;;;;16.45;10.98;;;;;;;9.94;100.00;97724.84;4989364;28;20026;-76
2021/09/23 00:52:19;;;;;;;16.85;11.05;;;;;;;9.89;100.00;97711.75;4973048;28;20030;-76
2021/09/23 00:54:46;;;;;;;17.98;10.40;;;;;;;10.01;100.00;97710.19;4973075;28;20663;-76
2021/09/23 00:57:17;;;;;;;18.05;10.13;;;;;;;10.03;100.00;97719.00;4972902;28;20019;-76
2021/09/23 00:59:43;;;;;;;15.27;9.90;;;;;;;10.07;100.00;97718.72;4973899;28;20553;-76
2021/09/23 01:02:08;;;;;;;16.30;11.10;;;;;;;9.95;100.00;97695.38;4973990;28;20027;-76
2021/09/23 01:04:34;;;;;;;19.55;10.82;;;;;;;10.06;100.00;97713.47;4988980;28;20085;-76
2021/09/23 01:07:00;;;;;;;19.55;11.25;;;;;;;10.07;100.00;97721.38;4978644;28;20022;-76
2021/09/23 01:09:25;;;;;;;17.48;11.27;;;;;;;10.08;100.00;97723.13;4992066;28;20029;-76
2021/09/23 01:11:51;;;;;;;15.75;10.02;;;;;;;10.12;100.00;97724.66;4991929;28;20022;-76
2021/09/23 01:14:16;;;;;;;18.02;11.60;;;;;;;10.07;100.00;97709.84;4991926;28;20030;-76
2021/09/23 01:16:42;;;;;;;16.35;10.85;;;;;;;10.15;100.00;97727.19;4991979;28;20026;-75
2021/09/23 01:19:08;;;;;;;21.30;10.93;;;;;;;10.02;100.00;97718.13;4975609;28;20090;-76
2021/09/23 01:21:34;;;;;;;17.63;11.13;;;;;;;10.08;100.00;97715.09;4991784;28;20034;-76
2021/09/23 01:23:59;;;;;;;18.90;10.85;;;;;;;10.04;100.00;97720.69;4993186;28;20482;-76
2021/09/23 01:26:29;;;;;;;14.80;10.45;;;;;;;10.21;100.00;97723.31;4972112;28;20030;-76
2021/09/23 01:28:56;;;;;;;16.25;10.80;;;;;;;10.18;100.00;97721.66;4976035;28;20030;-77
2021/09/23 01:31:22;;;;;;;25.00;11.80;;;;;;;10.17;100.00;97733.31;4975638;28;20517;-76
2021/09/23 01:33:49;;;;;;;18.83;10.93;;;;;;;10.18;100.00;97723.50;4991734;28;20109;-76
2021/09/23 01:36:15;;;;;;;16.20;10.68;;;;;;;10.19;100.00;97731.41;4992870;28;20518;-76
2021/09/23 01:38:43;;;;;;;20.38;12.13;;;;;;;10.08;100.00;97714.25;4992540;28;20497;-76
2021/09/23 01:41:09;;;;;;;18.08;12.27;;;;;;;10.13;100.00;97721.06;5008197;28;20033;-76
2021/09/23 01:43:35;;;;;;;19.33;11.32;;;;;;;10.20;100.00;97729.59;5007888;28;20026;-76
2021/09/23 01:46:01;;;;;;;17.60;10.98;;;;;;;10.17;100.00;97730.66;5007818;28;20022;-76
2021/09/23 01:48:26;;;;;;;17.10;10.68;;;;;;;10.16;100.00;97731.59;5007715;28;20057;-76
2021/09/23 01:50:52;;;;;;;17.98;11.00;;;;;;;10.14;100.00;97712.13;5007880;28;20049;-76
2021/09/23 01:53:17;;;;;;;15.88;10.52;;;;;;;10.16;100.00;97704.84;5007920;28;20023;-76
2021/09/23 01:55:43;;;;;;;33.00;10.07;;;;;;;10.23;100.00;97719.59;5007665;28;20029;-76
2021/09/23 01:58:08;;;;;;;16.20;9.85;;;;;;;10.16;100.00;97709.34;4992598;28;20018;-76
2021/09/23 02:00:34;;;;;;;17.92;10.70;;;;;;;10.07;100.00;97718.72;4991346;28;20102;-76
2021/09/23 02:02:59;;;;;;;18.58;11.43;;;;;;;10.01;100.00;97705.72;5007705;28;20030;-76
2021/09/23 02:05:25;;;;;;;16.33;10.98;;;;;;;10.20;100.00;97722.44;5007718;28;20034;-76
2021/09/23 02:07:51;;;;;;;19.67;11.15;;;;;;;10.18;100.00;97702.94;5007644;28;20019;-77
2021/09/23 02:10:17;;;;;;;15.88;10.52;;;;;;;10.34;100.00;97722.50;4991327;28;20014;-76
2021/09/23 02:12:43;;;;;;;17.90;11.20;;;;;;;10.39;100.00;97721.38;5011170;28;20030;-76
2021/09/23 02:15:09;;;;;;;15.50;11.18;;;;;;;10.29;100.00;97694.31;4995395;28;20105;-76
2021/09/23 02:17:35;;;;;;;17.70;10.88;;;;;;;10.29;100.00;97705.88;5011534;28;20030;-76
2021/09/23 02:20:00;;;;;;;17.48;11.38;;;;;;;10.32;100.00;97704.84;4995035;28;20031;-76
2021/09/23 02:22:26;;;;;;;16.10;11.00;;;;;;;10.42;100.00;97718.53;4999637;28;20406;-76
2021/09/23 02:24:53;;;;;;;16.33;10.85;;;;;;;10.37;100.00;97704.56;4978931;28;20030;-77
2021/09/23 02:27:19;;;;;;;16.67;11.02;;;;;;;10.36;100.00;97705.50;4979113;28;20076;-77
2021/09/23 02:29:48;;;;;;;18.73;10.98;;;;;;;10.28;100.00;97685.44;4995697;28;20478;-76
2021/09/23 02:32:13;;;;;;;18.27;11.23;;;;;;;10.29;100.00;97695.19;5015885;28;20026;-75
2021/09/23 02:34:39;;;;;;;16.00;11.18;;;;;;;10.41;100.00;97708.78;5015506;28;20018;-76
2021/09/23 02:37:05;;;;;;;20.45;11.45;;;;;;;10.39;100.00;97710.69;4998413;28;20046;-76
2021/09/23 02:39:31;;;;;;;17.88;11.95;;;;;;;10.36;100.00;97706.38;4998209;28;20109;-77
2021/09/23 02:41:57;;;;;;;20.42;12.95;;;;;;;10.27;100.00;97691.72;4994437;28;20425;-76
2021/09/23 02:44:22;;;;;;;20.48;13.13;;;;;;;10.36;100.00;97716.22;5011104;28;20032;-76
2021/09/23 02:46:48;;;;;;;19.15;12.18;;;;;;;10.30;100.00;97707.56;4994824;28;20037;-75
2021/09/23 02:49:14;;;;;;;22.08;11.93;;;;;;;10.30;100.00;97712.09;5011008;28;20026;-76
2021/09/23 02:51:39;;;;;;;23.67;12.82;;;;;;;10.33;100.00;97709.25;4996082;28;20097;-77
2021/09/23 02:54:05;;;;;;;21.70;12.18;;;;;;;10.46;100.00;97712.06;4994340;28;20097;-76
2021/09/23 02:56:30;;;;;;;20.75;11.80;;;;;;;10.36;100.00;97702.84;5010884;28;20080;-76
2021/09/23 02:58:56;;;;;;;27.63;12.90;;;;;;;10.46;100.00;97726.25;5011021;28;20417;-77
2021/09/23 03:01:22;;;;;;;26.83;12.88;;;;;;;10.39;100.00;97711.56;5010925;28;20038;-75
2021/09/23 03:03:47;;;;;;;18.48;12.35;;;;;;;10.54;100.00;97717.81;5010661;28;20031;-75
2021/09/23 03:06:14;;;;;;;21.85;12.05;;;;;;;10.53;100.00;97716.06;4994117;28;20091;-76
2021/09/23 03:08:40;;;;;;;18.00;12.50;;;;;;;10.53;100.00;97714.25;4995543;28;20068;-75
2021/09/23 03:11:05;;;;;;;17.55;11.30;;;;;;;10.51;100.00;97720.66;4994297;28;20501;-75
2021/09/23 03:13:31;;;;;;;19.80;11.63;;;;;;;10.45;100.00;97710.31;4994281;28;20026;-76
2021/09/23 03:15:57;;;;;;;18.27;10.48;;;;;;;10.35;100.00;97685.94;4994499;28;20029;-76
2021/09/23 03:18:23;;;;;;;16.25;10.93;;;;;;;10.43;100.00;97702.38;4978185;28;20033;-76
2021/09/23 03:20:49;;;;;;;23.17;12.07;;;;;;;10.40;100.00;97709.75;4977759;28;20529;-76
2021/09/23 03:23:16;;;;;;;16.13;11.43;;;;;;;10.43;100.00;97706.88;5008386;28;20041;-75
2021/09/23 03:25:42;;;;;;;18.40;11.82;;;;;;;10.37;100.00;97708.09;5010539;28;20022;-75
2021/09/23 03:28:08;;;;;;;23.67;12.73;;;;;;;10.32;100.00;97716.38;5010191;28;20030;-75
2021/09/23 03:30:35;;;;;;;22.77;12.93;;;;;;;10.13;100.00;97699.69;4994412;28;20026;-76
2021/09/23 03:33:07;;;;;;;20.50;12.73;;;;;;;10.13;100.00;97705.03;5010134;28;20034;-76
2021/09/23 03:35:33;;;;;;;20.98;13.35;;;;;;;10.13;100.00;97721.06;5013758;28;20112;-75
2021/09/23 03:37:59;;;;;;;24.27;14.35;;;;;;;10.15;100.00;97729.84;4994733;28;20046;-77
2021/09/23 03:40:25;;;;;;;25.40;13.85;;;;;;;10.16;100.00;97728.91;4994948;28;20109;-75
2021/09/23 03:42:51;;;;;;;22.77;13.07;;;;;;;9.92;100.00;97689.34;5003409;28;20026;-84
2021/09/23 03:45:17;;;;;;;27.42;13.55;;;;;;;9.78;100.00;97671.44;4988889;28;20034;-85
2021/09/23 03:47:43;;;;;;;24.30;13.95;;;;;;;9.97;100.00;97711.28;4977869;28;20026;-85
2021/09/23 03:50:09;;;;;;;20.05;12.65;;;;;;;9.80;100.00;97674.88;4987333;28;20053;-84
2021/09/23 03:52:35;;;;;;;19.58;12.45;;;;;;;9.79;100.00;97673.13;4978957;28;20029;-83
2021/09/23 03:55:00;;;;;;;22.40;12.55;;;;;;;9.72;100.00;97661.09;4977717;28;20031;-84
2021/09/23 03:57:27;;;;;;;19.55;11.88;;;;;;;9.94;100.00;97703.47;4976175;28;20410;-82
2021/09/23 03:59:52;;;;;;;22.30;12.50;;;;;;;10.18;100.00;97734.19;5009942;28;20502;-75
2021/09/23 04:02:19;;;;;;;20.15;12.80;;;;;;;10.18;100.00;97740.38;5009391;28;20117;-76
2021/09/23 04:04:44;;;;;;;20.23;11.52;;;;;;;10.16;100.00;97736.06;4993452;28;20031;-74
2021/09/23 04:07:10;;;;;;;20.55;11.15;;;;;;;10.17;100.00;97741.34;5007030;28;20109;-82
2021/09/23 04:09:36;;;;;;;18.35;10.70;;;;;;;10.23;100.00;97750.81;4988792;28;20461;-81
2021/09/23 04:12:01;;;;;;;18.80;11.20;;;;;;;10.09;100.00;97719.47;4980236;28;20030;-82
2021/09/23 04:14:27;;;;;;;19.92;12.10;;;;;;;9.96;100.00;97712.25;4995159;28;20113;-76
2021/09/23 04:16:53;;;;;;;22.35;12.32;;;;;;;10.06;100.00;97741.03;5009557;28;20433;-74
2021/09/23 04:19:19;;;;;;;26.17;12.88;;;;;;;10.01;100.00;97729.75;5008987;28;20042;-75
2021/09/23 04:21:44;;;;;;;28.38;13.68;;;;;;;9.96;100.00;97729.16;5002119;28;20105;-75
2021/09/23 04:24:10;;;;;;;22.80;13.70;;;;;;;9.99;100.00;97738.81;5009483;28;20050;-75
2021/09/23 04:26:35;;;;;;;25.48;13.15;;;;;;;10.10;100.00;97755.97;5009061;28;20406;-75
2021/09/23 04:29:02;;;;;;;19.00;12.40;;;;;;;10.14;100.00;97776.25;5009076;28;20029;-74
2021/09/23 04:31:27;;;;;;;17.88;12.10;;;;;;;10.18;100.00;97777.78;5008690;28;20023;-76
2021/09/23 04:33:53;;;;;;;22.65;12.63;;;;;;;10.34;100.00;97788.47;5008583;28;20096;-75
2021/09/23 04:36:18;;;;;;;22.70;13.25;;;;;;;10.23;100.00;97774.88;4993882;28;20576;-76
2021/09/23 04:38:44;;;;;;;20.80;13.35;;;;;;;10.23;100.00;97770.38;5009534;28;20117;-75
2021/09/23 04:41:11;;;;;;;23.50;13.70;;;;;;;10.39;100.00;97791.78;5009441;28;20030;-76
2021/09/23 04:43:38;;;;;;;22.60;12.55;;;;;;;10.30;100.00;97777.09;5008772;28;20040;-75
2021/09/23 04:46:05;;;;;;;24.52;13.85;;;;;;;10.36;100.00;97786.59;5009618;28;20046;-76
2021/09/23 04:48:30;;;;;;;28.45;14.43;;;;;;;10.56;100.00;97802.34;5009023;28;20034;-76
2021/09/23 04:50:56;;;;;;;25.35;14.15;;;;;;;10.50;100.00;97799.16;4994742;28;20498;-75
2021/09/23 04:53:21;;;;;;;19.02;12.27;;;;;;;10.53;100.00;97798.97;5008409;28;20034;-75
2021/09/23 04:55:47;;;;;;;20.88;13.10;;;;;;;10.58;100.00;97818.31;4994230;28;20026;-75
2021/09/23 04:58:13;;;;;;;19.90;13.10;;;;;;;10.61;100.00;97827.00;4993534;28;20089;-75
2021/09/23 05:00:38;;;;;;;38.47;13.88;;;;;;;10.46;100.00;97800.31;5008382;28;20040;-75
2021/09/23 05:03:04;;;;;;;53.97;27.17;;;;;;;10.54;100.00;97833.69;5008486;28;20042;-75
2021/09/23 05:05:30;;;;;;;35.28;18.52;;;;;;;10.52;100.00;97813.31;4993156;28;20493;-75
2021/09/23 05:07:56;;;;;;;74.97;38.70;;;;;;;10.63;100.00;97837.63;5008329;28;20026;-75
2021/09/23 05:10:22;;;;;;;57.10;26.90;;;;;;;10.70;100.00;97841.69;5008201;28;20116;-75
2021/09/23 05:12:47;;;;;;;24.67;13.80;;;;;;;10.49;100.00;97840.25;4992907;28;20078;-75
2021/09/23 05:15:13;;;;;;;29.92;15.05;;;;;;;10.42;100.00;97841.53;4993006;28;20157;-74
2021/09/23 05:17:39;;;;;;;24.75;14.40;;;;;;;10.56;100.00;97837.13;5008040;28;20027;-75
2021/09/23 05:20:07;;;;;;;28.63;13.15;;;;;;;10.61;100.00;97855.59;5008111;28;20555;-76
2021/09/23 05:22:32;;;;;;;25.13;12.75;;;;;;;10.56;100.00;97842.47;4975621;28;20045;-76
2021/09/23 05:24:58;;;;;;;24.55;13.52;;;;;;;10.66;100.00;97854.38;5008106;28;20493;-75
2021/09/23 05:27:24;;;;;;;20.52;13.25;;;;;;;10.78;100.00;97853.66;5008192;28;20109;-75
2021/09/23 05:29:49;;;;;;;22.38;13.88;;;;;;;10.79;100.00;97831.31;4992844;28;20022;-75
2021/09/23 05:32:15;;;;;;;32.80;13.10;;;;;;;10.70;100.00;97830.97;4991487;28;20057;-75
2021/09/23 05:34:40;;;;;;;37.90;16.80;;;;;;;10.81;100.00;97847.28;4992111;28;20053;-75
2021/09/23 05:37:06;;;;;;;24.75;14.07;;;;;;;10.74;100.00;97824.47;5007772;28;20038;-76
2021/09/23 05:39:32;;;;;;;23.35;13.40;;;;;;;10.84;100.00;97853.31;4992491;28;20026;-76
2021/09/23 05:41:57;;;;;;;20.95;11.80;;;;;;;10.92;100.00;97855.53;4974904;28;20053;-75
2021/09/23 05:44:23;;;;;;;17.25;11.15;;;;;;;10.87;100.00;97836.22;4992576;28;20030;-75
2021/09/23 05:46:54;;;;;;;15.82;11.18;;;;;;;11.09;100.00;97851.88;4990599;28;20053;-75
2021/09/23 05:49:20;;;;;;;20.13;12.27;;;;;;;11.21;100.00;97856.50;4992616;28;20026;-75
2021/09/23 05:51:47;;;;;;;26.10;13.50;;;;;;;11.21;100.00;97846.66;4975142;28;20030;-77
2021/09/23 05:54:13;;;;;;;23.42;13.70;;;;;;;11.18;100.00;97841.47;4983385;28;20041;-77
2021/09/23 05:56:39;;;;;;;16.52;11.00;;;;;;;11.21;100.00;97840.44;4992547;28;20109;-76
2021/09/23 05:59:04;;;;;;;31.52;20.42;;;;;;;11.36;100.00;97861.78;5007514;28;20030;-76
2021/09/23 06:01:30;;;;;;;27.88;12.40;;;;;;;11.15;100.00;97871.13;4992619;28;20514;-76
2021/09/23 06:03:56;;;;;;;23.58;12.75;;;;;;;11.19;100.00;97863.75;5007263;28;20088;-75
2021/09/23 06:06:21;;;;;;;27.58;13.07;;;;;;;11.19;100.00;97864.63;4992759;28;20113;-75
2021/09/23 06:08:47;;;;;;;34.10;13.68;;;;;;;11.28;100.00;97866.75;5007531;28;20026;-76
2021/09/23 06:11:13;;;;;;;37.95;15.05;;;;;;;11.38;100.00;97880.47;5007814;28;20106;-76
2021/09/23 06:13:40;;;;;;;34.35;17.02;;;;;;;11.52;100.00;97895.69;4992464;28;20489;-75
2021/09/23 06:16:06;;;;;;;34.55;18.35;;;;;;;11.46;100.00;97871.94;4991437;28;20085;-76
2021/09/23 06:18:32;;;;;;;35.30;18.27;;;;;;;11.36;100.00;97879.69;4992448;28;20030;-76
2021/09/23 06:20:57;;;;;;;35.95;18.98;;;;;;;11.40;100.00;97881.22;4990839;28;20023;-76
2021/09/23 06:23:23;;;;;;;43.50;18.38;;;;;;;11.60;100.00;97896.94;5007752;28;20170;-76
2021/09/23 06:25:48;;;;;;;44.80;20.17;;;;;;;11.42;100.00;97880.19;5007532;28;20026;-76
2021/09/23 06:28:14;;;;;;;52.22;25.52;;;;;;;11.51;100.00;97876.06;5007323;28;20026;-76
2021/09/23 06:30:40;;;;;;;37.08;18.58;;;;;;;11.54;100.00;97896.44;5004039;28;20080;-76
2021/09/23 06:33:05;;;;;;;38.72;22.35;;;;;;;11.54;100.00;97885.75;4974641;28;20120;-76
2021/09/23 06:35:31;;;;;;;29.80;18.05;;;;;;;11.71;100.00;97899.03;4991980;28;20050;-76
2021/09/23 06:37:56;;;;;;;32.17;17.95;;;;;;;12.00;100.00;97908.81;4991020;28;20470;-76
2021/09/23 06:40:22;;;;;;;37.15;18.23;;;;;;;12.16;100.00;97901.53;4991936;28;20057;-77
2021/09/23 06:42:48;;;;;;;31.75;15.00;;;;;;;12.55;98.76;97908.88;4991882;28;20177;-75
2021/09/23 06:45:14;;;;;;;20.50;11.90;;;;;;;12.84;92.86;97917.75;5006939;28;20046;-75
2021/09/23 06:47:40;;;;;;;24.85;11.18;;;;;;;13.01;88.58;97899.56;4990719;28;20026;-75
2021/09/23 06:50:06;;;;;;;37.35;14.48;;;;;;;13.40;85.97;97909.53;4991886;28;20033;-76
2021/09/23 06:52:32;;;;;;;27.98;12.60;;;;;;;13.62;84.30;97900.00;5007065;28;20117;-75
2021/09/23 06:54:58;;;;;;;26.88;14.55;;;;;;;13.99;83.59;97926.06;4992613;28;20108;-75
2021/09/23 06:57:24;;;;;;;29.90;12.65;;;;;;;14.31;80.37;97919.28;5008180;28;20105;-76
2021/09/23 06:59:49;;;;;;;30.73;12.18;;;;;;;14.71;78.13;97928.06;5010638;28;20462;-75
2021/09/23 07:02:15;;;;;;;23.52;9.32;;;;;;;15.02;73.51;97918.63;5015032;28;20041;-75
2021/09/23 07:04:41;;;;;;;12.20;7.05;;;;;;;15.20;71.35;97920.81;5015273;28;20058;-76
2021/09/23 07:07:06;;;;;;;15.60;7.35;;;;;;;15.54;69.18;97919.16;5015012;28;20497;-77
2021/09/23 07:09:32;;;;;;;15.00;7.82;;;;;;;16.35;66.81;97910.16;5013982;28;20029;-75
2021/09/23 07:11:58;;;;;;;17.50;9.38;;;;;;;17.69;60.22;97917.94;4989875;28;20029;-74
2021/09/23 07:14:24;;;;;;;16.05;8.40;;;;;;;18.08;57.16;97902.00;4994091;28;20029;-75
2021/09/23 07:16:50;;;;;;;12.70;8.85;;;;;;;18.00;57.18;97926.16;4977811;28;20018;-74
2021/09/23 07:19:15;;;;;;;55.85;34.33;;;;;;;17.56;55.99;97908.31;4977709;28;20413;-75
2021/09/23 07:21:41;;;;;;;24.88;15.15;;;;;;;17.10;56.89;97927.47;4977915;28;20037;-76
2021/09/23 07:24:07;;;;;;;13.98;6.80;;;;;;;16.38;59.95;97923.41;4977822;28;20076;-75
2021/09/23 07:26:32;;;;;;;15.00;6.95;;;;;;;16.09;61.63;97925.69;4977904;28;20026;-75
2021/09/23 07:28:59;;;;;;;12.98;6.50;;;;;;;15.50;63.54;97920.41;4995040;28;20026;-75
2021/09/23 07:31:25;;;;;;;9.07;6.50;;;;;;;15.30;64.12;97904.81;4994832;28;20033;-76
2021/09/23 07:33:51;;;;;;;10.77;6.15;;;;;;;15.38;63.85;97926.66;5010133;28;20124;-76
2021/09/23 07:36:18;;;;;;;22.63;7.07;;;;;;;15.23;62.45;97922.41;4993471;28;20042;-76
2021/09/23 07:38:44;;;;;;;8.40;6.13;;;;;;;15.18;62.52;97916.50;4977397;28;20151;-76
2021/09/23 07:41:09;;;;;;;7.18;5.78;;;;;;;15.22;63.79;97933.31;5009826;28;20494;-76
2021/09/23 07:43:35;;;;;;;16.35;6.25;;;;;;;15.15;62.92;97897.88;5013161;28;20084;-76
2021/09/23 07:46:00;;;;;;;8.50;6.07;;;;;;;15.03;63.98;97923.91;5014389;28;20109;-75
2021/09/23 07:48:27;;;;;;;8.20;5.85;;;;;;;15.12;64.18;97936.69;5012997;28;20046;-76
2021/09/23 07:50:52;;;;;;;8.13;5.90;;;;;;;15.09;64.41;97923.44;5014330;28;20445;-76
2021/09/23 07:53:18;;;;;;;9.98;6.85;;;;;;;15.17;64.96;97909.38;4980360;28;20172;-76
2021/09/23 07:55:43;;;;;;;10.13;6.50;;;;;;;14.84;65.61;97891.22;5014322;28;20041;-76
2021/09/23 07:58:09;;;;;;;11.02;6.80;;;;;;;15.07;65.30;97920.00;5012963;28;20116;-75
2021/09/23 08:00:34;;;;;;;9.98;6.30;;;;;;;15.14;64.76;97921.25;5012574;28;20029;-75
2021/09/23 08:03:00;;;;;;;10.65;6.60;;;;;;;15.43;63.66;97927.19;4996646;28;20038;-75
2021/09/23 08:05:29;;;;;;;11.52;6.93;;;;;;;15.55;62.45;97925.41;5013827;28;20030;-75
2021/09/23 08:07:59;;;;;;;13.77;7.53;;;;;;;15.67;63.22;97933.44;5013878;28;20041;-75
2021/09/23 08:10:25;;;;;;;14.15;8.38;;;;;;;15.82;62.97;97919.75;4995519;28;20026;-75
2021/09/23 08:12:51;;;;;;;17.45;7.93;;;;;;;16.22;60.72;97923.75;4996451;28;20029;-75
2021/09/23 08:15:20;;;;;;;14.65;7.10;;;;;;;16.86;58.38;97915.97;5005581;28;20512;-76
2021/09/23 08:17:45;;;;;;;11.85;5.72;;;;;;;17.15;54.87;97900.91;5012806;28;20497;-75
2021/09/23 08:20:11;;;;;;;14.82;5.72;;;;;;;18.29;52.28;97914.53;5012139;28;20032;-75
2021/09/23 08:22:37;;;;;;;18.05;5.97;;;;;;;21.14;46.07;97898.66;5013487;28;20126;-75
2021/09/23 08:25:04;;;;;;;8.13;4.80;;;;;;;24.34;38.85;97889.09;5012528;28;20044;-75
2021/09/23 08:27:29;;;;;;;10.77;4.60;;;;;;;25.46;35.03;97856.91;5013457;28;20436;-74
2021/09/23 08:29:55;;;;;;;6.85;4.57;;;;;;;24.85;35.24;97875.00;5012611;28;20029;-75
2021/09/23 08:32:21;;;;;;;8.48;5.82;;;;;;;27.06;32.34;97859.28;5013370;28;20025;-75
2021/09/23 08:34:47;;;;;;;6.90;4.68;;;;;;;27.54;30.38;97855.03;5001589;28;20102;-75
2021/09/23 08:37:13;;;;;;;13.07;5.40;;;;;;;28.20;30.03;97848.34;5008772;28;20104;-75
2021/09/23 08:39:38;;;;;;;8.43;3.83;;;;;;;27.18;29.89;97835.75;5004063;28;20100;-76
2021/09/23 08:42:04;;;;;;;14.93;4.47;;;;;;;25.71;31.54;97856.59;5013412;28;20026;-75
2021/09/23 08:44:30;;;;;;;7.32;4.22;;;;;;;25.17;32.46;97850.22;4995506;28;20386;-76
2021/09/23 08:46:56;;;;;;;9.15;4.88;;;;;;;26.68;30.07;97838.41;5012146;28;20061;-75
2021/09/23 08:49:21;;;;;;;8.90;5.13;;;;;;;27.29;29.42;97849.00;5012066;28;20033;-76
2021/09/23 08:51:47;;;;;;;10.05;4.75;;;;;;;28.47;27.26;97828.25;5013361;28;20022;-75
2021/09/23 08:54:14;;;;;;;6.00;3.75;;;;;;;28.53;26.74;97816.41;5011915;28;20025;-75
2021/09/23 08:56:39;;;;;;;5.85;3.90;;;;;;;28.24;26.92;97816.59;4995108;28;20088;-76
2021/09/23 08:59:05;;;;;;;4.05;3.35;;;;;;;28.88;26.57;97819.22;4995380;28;20025;-76
2021/09/23 09:01:49;;;;;;;5.00;3.80;;;;;;;29.16;25.94;97820.00;5011988;28;20034;-76
2021/09/23 09:04:15;;;;;;;8.68;4.10;;;;;;;28.34;26.22;97799.75;4993487;28;20022;-78
2021/09/23 09:06:55;;;;;;;5.00;3.35;;;;;;;27.10;27.55;97772.66;4992069;28;20034;-76
2021/09/23 09:09:21;;;;;;;4.25;3.85;;;;;;;26.22;29.26;97766.38;5008560;28;20030;-75
2021/09/23 09:11:49;;;;;;;11.18;9.00;;;;;;;26.69;29.33;97812.66;4992065;28;20031;-75
2021/09/23 09:14:31;;;;;;;6.65;4.18;;;;;;;25.23;31.02;97811.16;4993315;28;20030;-75
2021/09/23 09:17:03;;;;;;;5.13;4.53;;;;;;;23.85;32.47;97815.28;4975534;28;20037;-76
2021/09/23 09:19:43;;;;;;;4.00;3.60;;;;;;;24.59;31.91;97819.63;4978704;28;20109;-75
2021/09/23 09:22:13;;;;;;;5.20;3.83;;;;;;;25.99;29.71;97810.28;4993511;28;20050;-75
2021/09/23 09:24:58;;;;;;;3.83;3.40;;;;;;;28.18;27.55;97798.13;4993053;28;20022;-75
2021/09/23 09:27:33;;;;;;;4.07;3.30;;;;;;;29.63;25.22;97804.47;5008178;28;20026;-77
2021/09/23 09:30:08;;;;;;;3.95;3.22;;;;;;;28.71;25.64;97773.75;5007965;28;20030;-75
2021/09/23 09:32:42;;;;;;;6.05;3.22;;;;;;;25.63;28.69;97774.44;4975373;28;20042;-75
2021/09/23 09:35:10;;;;;;;3.97;3.58;;;;;;;25.91;28.73;97813.09;4991782;28;20050;-75
2021/09/23 09:37:38;;;;;;;5.18;3.35;;;;;;;25.46;29.81;97805.72;4992738;28;20526;-76
2021/09/23 09:40:04;;;;;;;7.18;6.28;;;;;;;26.73;28.04;97786.56;5005244;28;20061;-76
2021/09/23 09:42:31;;;;;;;6.85;4.43;;;;;;;26.97;27.99;97801.88;5012443;28;20103;-78
2021/09/23 09:44:58;;;;;;;12.32;3.35;;;;;;;28.96;25.99;97797.84;4978520;28;20053;-76
2021/09/23 09:47:33;;;;;;;3.88;3.05;;;;;;;29.93;24.54;97770.78;4994676;28;20474;-78
2021/09/23 09:50:12;;;;;;;3.60;3.03;;;;;;;30.23;23.96;97774.00;5012698;28;20025;-76
2021/09/23 09:52:39;;;;;;;3.95;3.10;;;;;;;31.11;23.07;97754.06;4994742;28;20029;-76
2021/09/23 09:55:09;;;;;;;7.60;3.40;;;;;;;30.78;23.17;97746.94;4998851;28;20034;-78
2021/09/23 09:57:46;;;;;;;3.63;3.08;;;;;;;30.57;23.60;97740.63;4974977;28;20026;-76
2021/09/23 10:00:13;;;;;;;3.55;3.10;;;;;;;27.18;27.48;97779.97;4992605;28;20014;-75
2021/09/23 10:02:39;;;;;;;5.05;3.42;;;;;;;28.28;26.12;97751.00;4991201;28;20026;-75
2021/09/23 10:05:06;;;;;;;5.53;3.50;;;;;;;28.67;26.17;97775.25;4992489;28;20034;-78
2021/09/23 10:07:34;;;;;;;4.55;3.22;;;;;;;27.89;26.45;97790.03;4975016;28;20033;-74
2021/09/23 10:10:01;;;;;;;4.10;3.15;;;;;;;28.37;25.76;97760.81;4992178;28;20161;-75
2021/09/23 10:12:27;;;;;;;3.38;2.90;;;;;;;28.87;25.93;97759.66;4991181;28;20030;-76
2021/09/23 10:14:53;;;;;;;4.68;3.10;;;;;;;30.61;23.80;97765.88;4990918;28;20042;-76
2021/09/23 10:17:21;;;;;;;4.15;3.38;;;;;;;30.36;24.42;97754.66;5007583;28;20061;-76
2021/09/23 10:19:47;;;;;;;5.40;3.00;;;;;;;30.73;23.78;97769.69;5007283;28;20478;-77
2021/09/23 10:22:13;;;;;;;3.15;2.85;;;;;;;31.85;22.55;97767.28;4991193;28;20069;-78
2021/09/23 10:24:41;;;;;;;5.93;3.40;;;;;;;31.84;22.39;97767.50;4990954;28;20026;-78
2021/09/23 10:27:57;;;;;;;6.20;3.25;;;;;;;31.77;22.48;97748.19;4990851;28;20031;-76
2021/09/23 10:29:53;;;;;;;3.85;2.85;;;;;;;29.92;24.26;97752.56;4992175;28;20092;-75
2021/09/23 10:32:20;;;;;;;4.30;3.10;;;;;;;28.75;25.12;97736.50;4992451;28;20026;-75
2021/09/23 10:34:49;;;;;;;4.43;2.90;;;;;;;29.76;24.34;97735.53;5008651;28;20029;-75
2021/09/23 10:37:15;;;;;;;4.38;3.20;;;;;;;30.23;24.05;97767.63;4996341;28;20035;-77
2021/09/23 10:39:41;;;;;;;3.47;2.70;;;;;;;30.61;23.40;97752.91;4994574;28;20122;-76
2021/09/23 10:42:11;;;;;;;4.57;3.08;;;;;;;30.02;23.68;97738.34;4994668;28;20038;-75
2021/09/23 10:44:38;;;;;;;11.65;2.50;;;;;;;31.17;22.60;97716.38;4978350;28;20093;-76
2021/09/23 10:47:06;;;;;;;3.10;2.80;;;;;;;31.65;22.06;97709.31;4979241;28;20109;-76
2021/09/23 10:49:33;;;;;;;3.10;2.80;;;;;;;31.42;22.20;97724.75;4996213;28;20049;-75
2021/09/23 10:52:19;;;;;;;4.70;3.05;;;;;;;32.64;21.17;97722.31;4994945;28;20026;-75
2021/09/23 10:54:45;;;;;;;2.83;2.60;;;;;;;33.15;20.74;97725.53;4995878;28;20414;-75
2021/09/23 10:57:13;;;;;;;3.63;2.63;;;;;;;31.71;21.80;97713.09;4996079;28;20026;-75
2021/09/23 10:59:39;;;;;;;5.43;2.92;;;;;;;32.63;21.19;97720.59;4978509;28;20051;-75
2021/09/23 11:02:37;;;;;;;4.50;2.80;;;;;;;31.36;21.97;97734.78;4994286;28;20036;-76
2021/09/23 11:05:06;;;;;;;6.97;3.03;;;;;;;30.43;22.80;97724.28;4959177;28;20034;-85
2021/09/23 11:07:33;;;;;;;3.08;2.25;;;;;;;28.42;24.69;97726.16;4987656;28;20049;-80
2021/09/23 11:10:06;;;;;;;4.05;2.80;;;;;;;29.25;24.08;97730.59;4997385;28;20076;-76
2021/09/23 11:15:45;;;;;;;2.75;2.50;;;;;;;30.64;22.73;97702.75;5015225;28;20030;-76
2021/09/23 11:18:11;;;;;;;2.78;2.30;;;;;;;30.66;22.56;97713.63;5013923;28;20418;-76
2021/09/23 11:20:39;;;;;;;4.82;2.40;;;;;;;30.06;22.80;97706.47;4997320;28;20026;-76